createdAt,value
2018-12-01T00:00:24.677Z,100241.28
2018-12-01T00:02:52.838Z,100235.55
2018-12-01T00:05:21.074Z,100235.63
2018-12-01T00:07:49.881Z,100240.41
2018-12-01T00:10:18.067Z,100242.80
2018-12-01T00:12:46.267Z,100236.13
2018-12-01T00:15:17.187Z,100241.31
2018-12-01T00:17:45.489Z,100244.70
2018-12-01T00:20:18.417Z,100240.10
2018-12-01T00:22:46.645Z,100237.84
2018-12-01T00:25:14.868Z,100238.42
2018-12-01T00:27:43.095Z,100252.47
2018-12-01T00:30:13.839Z,100252.13
2018-12-01T00:32:42.756Z,100247.00
2018-12-01T00:35:12.277Z,100252.00
2018-12-01T00:37:40.496Z,100254.05
2018-12-01T00:40:18.569Z,100249.41
2018-12-01T00:42:46.859Z,100246.92
2018-12-01T00:45:22.716Z,100247.95
2018-12-01T00:47:52.240Z,100255.23
2018-12-01T00:50:23.003Z,100257.20
2018-12-01T00:52:52.273Z,100257.87
2018-12-01T00:55:20.726Z,100256.00
2018-12-01T00:57:49.020Z,100259.77
2018-12-01T01:00:25.574Z,100256.64
2018-12-01T01:02:55.713Z,100251.98
2018-12-01T01:05:25.166Z,100261.00
2018-12-01T01:07:54.153Z,100261.37
2018-12-01T01:10:25.068Z,100262.64
2018-12-01T01:12:53.327Z,100268.03
2018-12-01T01:15:21.599Z,100270.03
2018-12-01T01:17:49.889Z,100264.72
2018-12-01T01:20:21.563Z,100275.44
2018-12-01T01:22:50.185Z,100265.88
2018-12-01T01:25:18.445Z,100266.22
2018-12-01T01:27:46.637Z,100270.30
2018-12-01T01:30:23.831Z,100281.98
2018-12-01T01:33:02.647Z,100285.16
2018-12-01T01:35:30.925Z,100281.52
2018-12-01T01:37:59.132Z,100277.32
2018-12-01T01:40:27.350Z,100264.30
2018-12-01T01:42:55.567Z,100271.44
2018-12-01T01:45:23.773Z,100267.73
2018-12-01T01:47:52.006Z,100272.21
2018-12-01T01:50:21.049Z,100273.18
2018-12-01T01:52:49.447Z,100263.08
2018-12-01T01:55:17.660Z,100263.98
2018-12-01T01:57:45.878Z,100265.90
2018-12-01T02:00:16.454Z,100271.14
2018-12-01T02:02:48.989Z,100269.20
2018-12-01T02:05:18.659Z,100266.45
2018-12-01T02:07:46.922Z,100272.09
2018-12-01T02:10:16.353Z,100267.33
2018-12-01T02:12:44.543Z,100267.05
2018-12-01T02:15:13.530Z,100270.76
2018-12-01T02:17:42.755Z,100268.20
2018-12-01T02:20:16.007Z,100263.09
2018-12-01T02:22:44.357Z,100273.53
2018-12-01T02:25:13.912Z,100263.38
2018-12-01T02:27:42.309Z,100262.54
2018-12-01T02:30:12.204Z,100257.46
2018-12-01T02:32:40.374Z,100264.20
2018-12-01T02:35:10.506Z,100258.89
2018-12-01T02:37:38.704Z,100258.02
2018-12-01T02:40:10.408Z,100267.52
2018-12-01T02:42:38.774Z,100265.94
2018-12-01T02:46:23.754Z,100269.54
2018-12-01T02:48:51.981Z,100263.08
2018-12-01T02:51:20.160Z,100256.50
2018-12-01T02:53:48.536Z,100257.46
2018-12-01T02:56:16.744Z,100265.28
2018-12-01T02:58:44.940Z,100268.33
2018-12-01T03:01:13.128Z,100275.25
2018-12-01T03:03:41.318Z,100268.67
2018-12-01T03:06:09.544Z,100275.81
2018-12-01T03:08:37.714Z,100272.98
2018-12-01T03:11:05.937Z,100280.56
2018-12-01T03:13:34.138Z,100286.21
2018-12-01T03:16:02.355Z,100285.16
2018-12-01T03:18:30.552Z,100278.79
2018-12-01T03:20:58.784Z,100288.47
2018-12-01T03:23:26.971Z,100289.78
2018-12-01T03:25:55.693Z,100293.08
2018-12-01T03:28:23.951Z,100296.47
2018-12-01T03:30:52.116Z,100300.91
2018-12-01T03:33:20.295Z,100304.19
2018-12-01T03:35:49.106Z,100301.25
2018-12-01T03:38:17.279Z,100302.36
2018-12-01T03:40:47.324Z,100300.16
2018-12-01T03:43:15.698Z,100304.97
2018-12-01T03:45:43.914Z,100302.27
2018-12-01T03:48:12.157Z,100305.91
2018-12-01T03:50:40.697Z,100312.48
2018-12-01T03:53:11.576Z,100308.70
2018-12-01T03:55:39.780Z,100309.06
2018-12-01T03:58:08.036Z,100304.34
2018-12-01T04:00:36.303Z,100312.14
2018-12-01T04:03:07.820Z,100312.18
2018-12-01T04:05:36.121Z,100309.09
2018-12-01T04:08:05.401Z,100313.30
2018-12-01T04:10:33.673Z,100306.03
2018-12-01T04:13:01.918Z,100311.81
2018-12-01T04:15:30.163Z,100310.84
2018-12-01T04:17:58.404Z,100319.36
2018-12-01T04:20:26.656Z,100311.22
2018-12-01T04:22:54.869Z,100309.66
2018-12-01T04:25:23.142Z,100305.89
2018-12-01T04:27:51.574Z,100303.63
2018-12-01T04:30:23.354Z,100308.30
2018-12-01T04:32:51.632Z,100309.00
2018-12-01T04:35:26.763Z,100304.08
2018-12-01T04:37:55.705Z,100307.16
2018-12-01T04:40:24.723Z,100306.66
2018-12-01T04:42:52.975Z,100305.62
2018-12-01T04:45:21.235Z,100298.63
2018-12-01T04:47:49.539Z,100307.17
2018-12-01T04:50:18.502Z,100303.63
2018-12-01T04:52:48.010Z,100307.70
2018-12-01T04:55:17.853Z,100311.56
2018-12-01T04:57:46.275Z,100309.72
2018-12-01T05:00:16.897Z,100314.91
2018-12-01T05:02:46.087Z,100321.63
2018-12-01T05:05:16.021Z,100314.57
2018-12-01T05:07:44.256Z,100323.23
2018-12-01T05:10:13.868Z,100321.34
2018-12-01T05:12:42.129Z,100321.91
2018-12-01T05:15:13.008Z,100328.23
2018-12-01T05:17:41.301Z,100333.27
2018-12-01T05:20:12.437Z,100335.16
2018-12-01T05:22:40.634Z,100349.03
2018-12-01T05:25:09.966Z,100342.36
2018-12-01T05:27:38.208Z,100336.36
2018-12-01T05:30:07.480Z,100344.56
2018-12-01T05:32:36.585Z,100351.78
2018-12-01T05:35:13.792Z,100341.47
2018-12-01T05:37:41.971Z,100339.30
2018-12-01T05:40:11.670Z,100349.14
2018-12-01T05:42:39.937Z,100347.98
2018-12-01T05:45:15.007Z,100343.22
2018-12-01T05:47:43.247Z,100340.03
2018-12-01T05:50:13.055Z,100339.03
2018-12-01T05:52:41.305Z,100343.75
2018-12-01T05:55:11.059Z,100345.55
2018-12-01T05:57:39.340Z,100355.60
2018-12-01T06:00:12.610Z,100355.60
2018-12-01T06:02:40.848Z,100363.30
2018-12-01T06:05:10.248Z,100362.62
2018-12-01T06:07:38.712Z,100365.98
2018-12-01T06:10:19.038Z,100361.59
2018-12-01T06:12:48.244Z,100365.91
2018-12-01T06:15:18.040Z,100365.71
2018-12-01T06:17:46.490Z,100370.47
2018-12-01T06:20:16.522Z,100374.94
2018-12-01T06:22:44.692Z,100377.05
2018-12-01T06:25:15.437Z,100369.61
2018-12-01T06:27:43.641Z,100376.36
2018-12-01T06:30:18.828Z,100380.86
2018-12-01T06:32:49.367Z,100377.33
2018-12-01T06:35:17.699Z,100386.80
2018-12-01T06:37:45.943Z,100376.18
2018-12-01T06:40:18.929Z,100377.95
2018-12-01T06:42:47.239Z,100384.45
2018-12-01T06:45:16.436Z,100385.78
2018-12-01T06:47:44.772Z,100386.09
2018-12-01T06:50:19.825Z,100385.87
2018-12-01T06:52:48.151Z,100382.67
2018-12-01T06:55:16.379Z,100388.48
2018-12-01T06:57:45.986Z,100384.66
2018-12-01T07:00:18.725Z,100386.52
2018-12-01T07:02:47.730Z,100391.72
2018-12-01T07:05:16.741Z,100398.31
2018-12-01T07:07:45.205Z,100401.84
2018-12-01T07:10:14.909Z,100400.77
2018-12-01T07:12:45.288Z,100404.81
2018-12-01T07:15:19.170Z,100398.69
2018-12-01T07:17:47.349Z,100394.25
2018-12-01T07:20:15.500Z,100408.94
2018-12-01T07:22:43.912Z,100408.50
2018-12-01T07:25:12.088Z,100417.33
2018-12-01T07:27:40.208Z,100409.37
2018-12-01T07:30:11.761Z,100405.36
2018-12-01T07:32:41.067Z,100407.77
2018-12-01T07:35:09.564Z,100406.14
2018-12-01T07:37:38.201Z,100416.09
2018-12-01T07:40:14.578Z,100415.88
2018-12-01T07:42:43.028Z,100414.37
2018-12-01T07:45:12.966Z,100421.52
2018-12-01T07:47:41.171Z,100419.49
2018-12-01T07:50:12.320Z,100414.72
2018-12-01T07:52:41.313Z,100418.94
2018-12-01T07:55:09.819Z,100423.97
2018-12-01T07:57:38.002Z,100425.88
2018-12-01T08:00:11.355Z,100421.81
2018-12-01T08:02:39.933Z,100423.83
2018-12-01T08:05:09.786Z,100420.78
2018-12-01T08:07:38.163Z,100421.85
2018-12-01T08:10:09.909Z,100421.47
2018-12-01T08:12:38.173Z,100425.72
2018-12-01T08:15:22.066Z,100423.53
2018-12-01T08:17:50.263Z,100431.89
2018-12-01T08:20:18.523Z,100426.73
2018-12-01T08:22:46.768Z,100425.77
2018-12-01T08:25:17.988Z,100427.63
2018-12-01T08:27:53.095Z,100420.33
2018-12-01T08:30:28.822Z,100428.34
2018-12-01T08:32:57.068Z,100426.69
2018-12-01T08:35:27.812Z,100427.20
2018-12-01T08:37:55.981Z,100426.14
2018-12-01T08:40:27.184Z,100423.77
2018-12-01T08:42:55.359Z,100418.99
2018-12-01T08:45:23.664Z,100421.17
2018-12-01T08:47:51.898Z,100420.76
2018-12-01T08:50:23.145Z,100416.36
2018-12-01T08:52:52.097Z,100420.52
2018-12-01T08:55:23.019Z,100409.42
2018-12-01T08:57:52.339Z,100407.75
2018-12-01T09:00:29.304Z,100409.67
2018-12-01T09:03:01.244Z,100405.22
2018-12-01T09:05:29.465Z,100411.92
2018-12-01T09:07:57.643Z,100409.20
2018-12-01T09:10:25.813Z,100423.25
2018-12-01T09:12:54.037Z,100420.28
2018-12-01T09:15:22.304Z,100416.53
2018-12-01T09:17:50.790Z,100400.28
2018-12-01T09:20:19.087Z,100403.86
2018-12-01T09:22:50.247Z,100400.59
2018-12-01T09:25:19.169Z,100403.20
2018-12-01T09:27:47.677Z,100411.00
2018-12-01T09:30:24.150Z,100413.55
2018-12-01T09:32:52.619Z,100412.45
2018-12-01T09:35:20.881Z,100410.61
2018-12-01T09:37:49.087Z,100420.09
2018-12-01T09:40:19.032Z,100410.88
2018-12-01T09:42:47.392Z,100409.66
2018-12-01T09:45:18.585Z,100409.89
2018-12-01T09:47:48.830Z,100404.27
2018-12-01T09:50:17.094Z,100401.75
2018-12-01T09:52:48.115Z,100387.29
2018-12-01T09:55:18.183Z,100381.80
2018-12-01T09:57:47.033Z,100378.34
2018-12-01T10:00:22.566Z,100376.70
2018-12-01T10:02:50.830Z,100377.25
2018-12-01T10:05:20.388Z,100383.63
2018-12-01T10:07:48.667Z,100381.59
2018-12-01T10:10:23.361Z,100378.66
2018-12-01T10:12:54.756Z,100381.09
2018-12-01T10:15:34.154Z,100379.45
2018-12-01T10:18:02.429Z,100382.56
2018-12-01T10:20:34.509Z,100375.36
2018-12-01T10:23:14.080Z,100379.31
2018-12-01T10:25:42.551Z,100381.19
2018-12-01T10:28:11.557Z,100373.23
2018-12-01T10:30:39.814Z,100385.71
2018-12-01T10:33:08.110Z,100383.67
2018-12-01T10:35:37.614Z,100388.70
2018-12-01T10:38:13.031Z,100383.70
2018-12-01T10:40:41.346Z,100378.47
2018-12-01T10:43:09.603Z,100376.59
2018-12-01T10:45:37.850Z,100375.92
2018-12-01T10:48:08.658Z,100373.02
2018-12-01T10:50:37.190Z,100364.47
2018-12-01T10:53:06.650Z,100366.38
2018-12-01T10:55:36.626Z,100361.11
2018-12-01T10:58:13.916Z,100358.59
2018-12-01T11:00:49.531Z,100357.73
2018-12-01T11:03:24.125Z,100354.18
2018-12-01T11:05:53.516Z,100362.22
2018-12-01T11:08:21.763Z,100358.04
2018-12-01T11:10:55.095Z,100358.19
2018-12-01T11:13:18.598Z,100362.56
2018-12-01T11:15:46.789Z,100361.76
2018-12-01T11:18:15.124Z,100353.73
2018-12-01T11:20:43.524Z,100349.19
2018-12-01T11:23:12.529Z,100346.60
2018-12-01T11:25:40.784Z,100340.11
2018-12-01T11:28:10.864Z,100340.50
2018-12-01T11:30:42.263Z,100345.41
2018-12-01T11:33:10.581Z,100341.01
2018-12-01T11:35:38.920Z,100342.17
2018-12-01T11:38:07.918Z,100341.20
2018-12-01T11:40:36.233Z,100337.56
2018-12-01T11:43:05.965Z,100330.25
2018-12-01T11:45:34.353Z,100331.33
2018-12-01T11:48:02.718Z,100333.72
2018-12-01T11:50:31.095Z,100334.94
2018-12-01T11:52:59.603Z,100335.97
2018-12-01T11:55:27.888Z,100337.18
2018-12-01T11:57:56.077Z,100336.41
2018-12-01T12:00:26.078Z,100340.91
2018-12-01T12:02:55.492Z,100343.59
2018-12-01T12:05:24.879Z,100342.01
2018-12-01T12:08:24.023Z,100340.11
2018-12-01T12:10:54.157Z,100342.34
2018-12-01T12:13:25.359Z,100342.65
2018-12-01T12:15:55.001Z,100342.19
2018-12-01T12:18:24.515Z,100351.39
2018-12-01T12:20:55.027Z,100350.20
2018-12-01T12:23:23.510Z,100349.57
2018-12-01T12:25:53.003Z,100348.56
2018-12-01T12:28:22.417Z,100352.28
2018-12-01T12:30:50.543Z,100352.98
2018-12-01T12:33:18.751Z,100350.76
2018-12-01T12:35:47.081Z,100355.27
2018-12-01T12:38:15.412Z,100348.30
2018-12-01T12:40:43.663Z,100349.92
2018-12-01T12:43:11.965Z,100342.00
2018-12-01T12:45:40.287Z,100340.42
2018-12-01T12:48:09.385Z,100336.27
2018-12-01T12:50:37.679Z,100339.70
2018-12-01T12:53:06.239Z,100347.14
2018-12-01T12:55:35.286Z,100349.06
2018-12-01T12:58:03.630Z,100343.27
2018-12-01T13:00:32.882Z,100345.20
2018-12-01T13:03:05.904Z,100351.95
2018-12-01T13:05:38.038Z,100347.62
2018-12-01T13:08:07.516Z,100343.23
2018-12-01T13:10:35.764Z,100339.63
2018-12-01T13:13:05.013Z,100324.16
2018-12-01T13:15:33.495Z,100322.13
2018-12-01T13:18:01.824Z,100323.06
2018-12-01T13:20:30.094Z,100329.02
2018-12-01T13:23:00.168Z,100334.30
2018-12-01T13:25:28.579Z,100326.11
2018-12-01T13:28:11.337Z,100322.57
2018-12-01T13:30:54.850Z,100313.72
2018-12-01T13:33:24.711Z,100319.30
2018-12-01T13:35:53.158Z,100321.55
2018-12-01T13:38:21.512Z,100315.66
2018-12-01T13:40:49.842Z,100314.38
2018-12-01T13:43:18.202Z,100306.39
2018-12-01T13:45:46.494Z,100308.47
2018-12-01T13:48:14.798Z,100317.22
2018-12-01T13:50:43.148Z,100307.02
2018-12-01T13:53:12.940Z,100313.20
2018-12-01T13:55:41.187Z,100316.66
2018-12-01T13:58:09.403Z,100324.92
2018-12-01T14:00:38.330Z,100317.56
2018-12-01T14:03:07.955Z,100321.56
2018-12-01T14:05:36.334Z,100313.44
2018-12-01T14:08:05.269Z,100320.44
2018-12-01T14:10:34.702Z,100321.97
2018-12-01T14:13:08.912Z,100325.34
2018-12-01T14:15:37.119Z,100331.34
2018-12-01T14:18:06.140Z,100333.03
2018-12-01T14:20:34.552Z,100327.54
2018-12-01T14:23:02.998Z,100324.22
2018-12-01T14:25:31.383Z,100328.02
2018-12-01T14:28:06.183Z,100319.53
2018-12-01T14:30:34.461Z,100324.74
2018-12-01T14:33:02.681Z,100327.70
2018-12-01T14:35:34.108Z,100325.06
2018-12-01T14:38:11.935Z,100331.09
2018-12-01T14:40:42.215Z,100328.72
2018-12-01T14:43:11.245Z,100330.66
2018-12-01T14:45:40.685Z,100331.92
2018-12-01T14:48:09.806Z,100332.55
2018-12-01T14:50:38.018Z,100334.11
2018-12-01T14:53:07.999Z,100328.09
2018-12-01T14:55:36.226Z,100335.77
2018-12-01T14:58:05.068Z,100336.72
2018-12-01T15:00:33.344Z,100344.12
2018-12-01T15:03:01.568Z,100354.55
2018-12-01T15:05:29.791Z,100352.37
2018-12-01T15:07:57.987Z,100348.84
2018-12-01T15:10:27.170Z,100359.52
2018-12-01T15:12:55.548Z,100352.06
2018-12-01T15:15:26.450Z,100350.80
2018-12-01T15:17:54.727Z,100358.26
2018-12-01T15:20:24.498Z,100353.41
2018-12-01T15:22:59.417Z,100358.60
2018-12-01T15:25:29.589Z,100349.72
2018-12-01T15:27:57.903Z,100338.66
2018-12-01T15:30:28.141Z,100340.00
2018-12-01T15:33:15.775Z,100338.95
2018-12-01T15:35:45.197Z,100339.38
2018-12-01T15:38:14.359Z,100330.61
2018-12-01T15:40:45.091Z,100340.74
2018-12-01T15:43:13.315Z,100335.12
2018-12-01T15:45:41.697Z,100333.98
2018-12-01T15:48:10.041Z,100334.91
2018-12-01T15:50:39.960Z,100339.86
2018-12-01T15:53:10.619Z,100344.10
2018-12-01T15:55:39.096Z,100347.12
2018-12-01T15:58:07.957Z,100339.16
2018-12-01T16:00:37.494Z,100340.61
2018-12-01T16:03:06.492Z,100335.45
2018-12-01T16:05:34.768Z,100331.08
2018-12-01T16:08:03.823Z,100330.03
2018-12-01T16:10:32.303Z,100340.25
2018-12-01T16:13:10.218Z,100339.18
2018-12-01T16:15:41.108Z,100329.61
2018-12-01T16:18:10.818Z,100329.53
2018-12-01T16:20:39.468Z,100330.80
2018-12-01T16:23:07.712Z,100325.64
2018-12-01T16:25:36.056Z,100330.61
2018-12-01T16:28:04.286Z,100334.97
2018-12-01T16:30:36.170Z,100340.99
2018-12-01T16:33:16.195Z,100335.36
2018-12-01T16:35:44.577Z,100347.00
2018-12-01T16:38:15.444Z,100329.80
2018-12-01T16:41:20.480Z,100335.45
2018-12-01T16:43:48.839Z,100333.62
2018-12-01T16:46:17.232Z,100330.97
2018-12-01T16:48:45.485Z,100321.55
2018-12-01T16:51:13.760Z,100328.45
2018-12-01T16:53:42.072Z,100325.55
2018-12-01T16:56:10.392Z,100328.42
2018-12-01T16:58:38.795Z,100328.05
2018-12-01T17:01:07.069Z,100321.55
2018-12-01T17:03:35.286Z,100320.62
2018-12-01T17:06:07.935Z,100306.44
2018-12-01T17:08:36.256Z,100307.75
2018-12-01T17:11:05.671Z,100311.09
2018-12-01T17:13:34.125Z,100307.53
2018-12-01T17:16:02.403Z,100300.77
2018-12-01T17:18:30.853Z,100307.49
2018-12-01T17:20:59.252Z,100300.31
2018-12-01T17:23:27.536Z,100302.00
2018-12-01T17:25:55.770Z,100298.17
2018-12-01T17:28:24.025Z,100299.91
2018-12-01T17:30:52.314Z,100291.39
2018-12-01T17:33:20.645Z,100285.35
2018-12-01T17:35:48.968Z,100279.49
2018-12-01T17:38:20.807Z,100279.62
2018-12-01T17:41:06.841Z,100279.40
2018-12-01T17:43:52.306Z,100269.58
2018-12-01T17:46:20.525Z,100277.42
2018-12-01T17:48:48.962Z,100276.03
2018-12-01T17:51:17.160Z,100287.77
2018-12-01T17:53:48.362Z,100274.50
2018-12-01T17:56:16.591Z,100261.50
2018-12-01T17:58:44.859Z,100273.05
2018-12-01T18:01:13.262Z,100257.73
2018-12-01T18:03:41.522Z,100260.61
2018-12-01T18:06:11.774Z,100256.98
2018-12-01T18:08:40.082Z,100245.89
2018-12-01T18:11:09.766Z,100241.81
2018-12-01T18:13:37.980Z,100228.78
2018-12-01T18:16:06.878Z,100226.45
2018-12-01T18:18:35.308Z,100223.07
2018-12-01T18:21:03.649Z,100212.28
2018-12-01T18:23:31.950Z,100213.36
2018-12-01T18:26:00.330Z,100220.00
2018-12-01T18:28:47.532Z,100220.45
2018-12-01T18:31:19.603Z,100223.63
2018-12-01T18:33:52.301Z,100228.92
2018-12-01T18:36:20.609Z,100216.87
2018-12-01T18:38:50.532Z,100207.69
2018-12-01T18:41:19.389Z,100208.27
2018-12-01T18:43:47.679Z,100208.27
2018-12-01T18:46:16.183Z,100208.86
2018-12-01T18:48:45.508Z,100194.42
2018-12-01T18:51:13.834Z,100195.02
2018-12-01T18:53:42.203Z,100191.55
2018-12-01T18:56:10.559Z,100187.69
2018-12-01T18:58:38.813Z,100186.78
2018-12-01T19:01:09.375Z,100190.45
2018-12-01T19:03:38.297Z,100187.51
2018-12-01T19:06:07.548Z,100190.28
2018-12-01T19:08:35.855Z,100185.06
2018-12-01T19:11:04.923Z,100185.29
2018-12-01T19:13:33.117Z,100182.75
2018-12-01T19:16:01.491Z,100185.83
2018-12-01T19:18:30.028Z,100196.53
2018-12-01T19:20:58.330Z,100196.75
2018-12-01T19:23:26.582Z,100195.72
2018-12-01T19:25:54.839Z,100190.84
2018-12-01T19:28:23.665Z,100194.77
2018-12-01T19:30:51.891Z,100193.04
2018-12-01T19:33:22.231Z,100179.61
2018-12-01T19:35:52.407Z,100184.81
2018-12-01T19:38:28.327Z,100181.43
2018-12-01T19:40:58.735Z,100180.49
2018-12-01T19:43:26.953Z,100184.38
2018-12-01T19:45:55.204Z,100182.92
2018-12-01T19:48:23.636Z,100186.94
2018-12-01T19:50:52.063Z,100181.89
2018-12-01T19:53:20.296Z,100172.66
2018-12-01T19:55:50.878Z,100175.89
2018-12-01T19:58:22.365Z,100174.70
2018-12-01T20:00:53.591Z,100160.56
2018-12-01T20:03:23.404Z,100173.20
2018-12-01T20:05:51.659Z,100155.53
2018-12-01T20:08:21.566Z,100151.86
2018-12-01T20:10:56.025Z,100150.95
2018-12-01T20:13:44.200Z,100163.41
2018-12-01T20:16:28.682Z,100160.25
2018-12-01T20:18:56.951Z,100153.59
2018-12-01T20:21:25.269Z,100158.48
2018-12-01T20:23:53.531Z,100149.98
2018-12-01T20:26:22.119Z,100142.78
2018-12-01T20:28:50.680Z,100147.46
2018-12-01T20:31:18.949Z,100148.33
2018-12-01T20:33:47.305Z,100149.06
2018-12-01T20:36:22.269Z,100144.11
2018-12-01T20:38:59.929Z,100144.31
2018-12-01T20:41:28.618Z,100148.98
2018-12-01T20:43:56.821Z,100143.91
2018-12-01T20:46:25.062Z,100138.12
2018-12-01T20:48:53.301Z,100135.44
2018-12-01T20:51:21.599Z,100139.16
2018-12-01T20:53:50.232Z,100127.47
2018-12-01T20:56:21.696Z,100123.30
2018-12-01T20:58:49.960Z,100118.44
2018-12-01T21:01:18.201Z,100118.20
2018-12-01T21:03:46.532Z,100115.36
2018-12-01T21:06:14.823Z,100107.77
2018-12-01T21:08:43.094Z,100108.00
2018-12-01T21:11:13.505Z,100094.58
2018-12-01T21:13:41.725Z,100109.11
2018-12-01T21:16:09.992Z,100095.79
2018-12-01T21:18:38.235Z,100090.44
2018-12-01T21:21:06.594Z,100077.95
2018-12-01T21:23:34.927Z,100079.25
2018-12-01T21:26:03.216Z,100078.05
2018-12-01T21:28:31.511Z,100079.66
2018-12-01T21:31:00.706Z,100084.61
2018-12-01T21:33:31.292Z,100081.67
2018-12-01T21:35:59.555Z,100081.20
2018-12-01T21:38:27.724Z,100088.92
2018-12-01T21:40:56.082Z,100073.67
2018-12-01T21:43:25.009Z,100066.41
2018-12-01T21:45:53.327Z,100064.23
2018-12-01T21:48:21.660Z,100062.77
2018-12-01T21:50:49.949Z,100058.95
2018-12-01T21:53:22.802Z,100055.03
2018-12-01T21:55:51.554Z,100051.98
2018-12-01T21:58:19.921Z,100045.50
2018-12-01T22:00:50.755Z,100047.67
2018-12-01T22:03:20.582Z,100044.13
2018-12-01T22:05:57.261Z,100037.58
2018-12-01T22:08:25.664Z,100040.31
2018-12-01T22:10:55.948Z,100042.05
2018-12-01T22:13:24.166Z,100035.75
2018-12-01T22:15:52.365Z,100027.56
2018-12-01T22:18:21.271Z,100025.44
2018-12-01T22:20:49.549Z,100033.55
2018-12-01T22:23:17.733Z,100020.59
2018-12-01T22:25:46.060Z,100017.81
2018-12-01T22:28:14.822Z,100016.78
2018-12-01T22:30:46.750Z,100006.22
2018-12-01T22:33:17.454Z,100012.71
2018-12-01T22:35:47.521Z,100007.56
2018-12-01T22:38:15.719Z,100016.50
2018-12-01T22:40:44.979Z,100011.38
2018-12-01T22:43:13.941Z,100011.04
2018-12-01T22:45:43.013Z,100009.63
2018-12-01T22:48:17.466Z,100002.45
2018-12-01T22:50:47.899Z,100004.77
2018-12-01T22:53:16.104Z,99998.48
2018-12-01T22:55:45.099Z,100000.84
2018-12-01T22:58:14.970Z,100006.91
2018-12-01T23:01:00.452Z,100002.53
2018-12-01T23:03:31.887Z,99996.38
2018-12-01T23:06:00.069Z,100004.20
2018-12-01T23:08:29.020Z,99999.28
2018-12-01T23:10:57.299Z,99994.20
2018-12-01T23:13:25.561Z,99996.75
2018-12-01T23:15:53.839Z,99988.67
2018-12-01T23:18:24.099Z,99997.72
2018-12-01T23:20:53.166Z,99980.41
2018-12-01T23:23:21.526Z,99973.23
2018-12-01T23:25:49.772Z,99970.70
2018-12-01T23:28:17.999Z,99957.81
2018-12-01T23:30:53.379Z,99966.56
2018-12-01T23:33:27.089Z,99945.58
2018-12-01T23:35:55.597Z,99945.70
2018-12-01T23:38:23.846Z,99944.43
2018-12-01T23:40:52.158Z,99941.05
2018-12-01T23:43:20.355Z,99931.13
2018-12-01T23:45:49.506Z,99919.20
2018-12-01T23:48:17.787Z,99919.70
2018-12-01T23:50:51.789Z,99926.05
2018-12-01T23:53:20.290Z,99913.52
2018-12-01T23:55:49.505Z,99914.42
2018-12-01T23:58:17.747Z,99897.02
